createdAt,value
2019-01-28T00:01:22.940Z,4.61
2019-01-28T00:03:53.394Z,4.63
2019-01-28T00:06:23.504Z,4.68
2019-01-28T00:08:54.030Z,4.73
2019-01-28T00:11:24.386Z,4.61
2019-01-28T00:13:55.368Z,4.62
2019-01-28T00:16:26.036Z,4.63
2019-01-28T00:18:56.465Z,4.76
2019-01-28T00:21:26.762Z,4.75
2019-01-28T00:23:57.498Z,4.74
2019-01-28T00:26:27.950Z,4.60
2019-01-28T00:28:59.057Z,4.69
2019-01-28T00:31:29.742Z,4.63
2019-01-28T00:34:00.365Z,4.61
2019-01-28T00:36:30.580Z,4.60
2019-01-28T00:39:01.173Z,4.57
2019-01-28T00:41:31.426Z,4.59
2019-01-28T00:44:01.255Z,4.59
2019-01-28T00:46:31.084Z,4.60
2019-01-28T00:49:00.357Z,4.56
2019-01-28T00:51:29.667Z,4.60
2019-01-28T00:53:58.939Z,4.33
2019-01-28T00:56:28.534Z,4.44
2019-01-28T00:58:57.814Z,4.31
2019-01-28T01:01:27.261Z,4.27
2019-01-28T01:03:56.536Z,4.33
2019-01-28T01:06:25.925Z,4.44
2019-01-28T01:08:55.271Z,4.41
2019-01-28T01:11:24.887Z,4.31
2019-01-28T01:13:54.411Z,4.38
2019-01-28T01:16:23.730Z,4.16
2019-01-28T01:18:53.505Z,4.27
2019-01-28T01:21:22.911Z,4.19
2019-01-28T01:23:52.194Z,4.22
2019-01-28T01:26:21.869Z,4.24
2019-01-28T01:28:51.152Z,4.17
2019-01-28T01:31:20.732Z,3.99
2019-01-28T01:33:50.012Z,4.21
2019-01-28T01:36:19.385Z,4.05
2019-01-28T01:38:48.862Z,3.96
2019-01-28T01:41:18.238Z,4.18
2019-01-28T01:43:47.709Z,4.10
2019-01-28T01:46:17.294Z,4.06
2019-01-28T01:48:46.667Z,4.09
2019-01-28T01:51:16.019Z,4.08
2019-01-28T01:53:45.320Z,3.97
2019-01-28T01:56:14.594Z,3.80
2019-01-28T01:58:44.280Z,3.87
2019-01-28T02:01:13.578Z,3.83
2019-01-28T02:03:42.890Z,3.96
2019-01-28T02:06:12.161Z,3.90
2019-01-28T02:08:41.469Z,3.85
2019-01-28T02:11:10.808Z,3.79
2019-01-28T02:13:40.373Z,3.89
2019-01-28T02:16:09.649Z,3.69
2019-01-28T02:18:39.155Z,3.66
2019-01-28T02:21:08.749Z,3.61
2019-01-28T02:23:38.316Z,3.68
2019-01-28T02:26:07.860Z,3.67
2019-01-28T02:28:37.172Z,3.68
2019-01-28T02:31:06.514Z,3.66
2019-01-28T02:33:35.830Z,3.65
2019-01-28T02:36:05.757Z,3.64
2019-01-28T02:38:35.104Z,3.59
2019-01-28T02:41:04.841Z,3.65
2019-01-28T02:43:34.139Z,3.70
2019-01-28T02:46:03.783Z,3.78
2019-01-28T02:48:33.097Z,3.84
2019-01-28T02:51:02.500Z,3.75
2019-01-28T02:53:32.008Z,3.80
2019-01-28T02:56:01.317Z,3.74
2019-01-28T02:58:30.727Z,3.84
2019-01-28T03:01:00.044Z,3.74
2019-01-28T03:03:30.077Z,3.85
2019-01-28T03:05:59.379Z,3.94
2019-01-28T03:08:29.422Z,3.97
2019-01-28T03:10:58.796Z,3.83
2019-01-28T03:13:28.062Z,3.74
2019-01-28T03:15:57.373Z,3.83
2019-01-28T03:18:26.990Z,3.60
2019-01-28T03:20:56.297Z,3.77
2019-01-28T03:23:26.348Z,3.81
2019-01-28T03:25:55.664Z,3.72
2019-01-28T03:28:24.941Z,3.83
2019-01-28T03:30:54.239Z,3.76
2019-01-28T03:33:23.521Z,3.69
2019-01-28T03:35:52.810Z,3.57
2019-01-28T03:38:23.994Z,3.54
2019-01-28T03:40:55.100Z,3.70
2019-01-28T03:43:24.401Z,3.68
2019-01-28T03:45:53.670Z,3.65
2019-01-28T03:48:22.987Z,3.72
2019-01-28T03:50:52.465Z,3.65
2019-01-28T03:53:22.604Z,3.68
2019-01-28T03:55:52.395Z,3.66
2019-01-28T03:58:21.776Z,3.53
2019-01-28T04:00:51.166Z,3.66
2019-01-28T04:03:20.482Z,3.58
2019-01-28T04:05:49.833Z,3.57
2019-01-28T04:08:19.210Z,3.53
2019-01-28T04:10:48.514Z,3.55
2019-01-28T04:13:17.859Z,3.51
2019-01-28T04:15:47.295Z,3.49
2019-01-28T04:18:16.606Z,3.44
2019-01-28T04:20:45.991Z,3.27
2019-01-28T04:23:15.309Z,3.39
2019-01-28T04:25:44.582Z,3.45
2019-01-28T04:28:13.893Z,3.34
2019-01-28T04:30:43.178Z,3.43
2019-01-28T04:33:12.467Z,3.23
2019-01-28T04:35:41.739Z,3.27
2019-01-28T04:38:11.040Z,3.32
2019-01-28T04:40:40.329Z,3.29
2019-01-28T04:43:09.633Z,3.12
2019-01-28T04:45:39.229Z,3.18
2019-01-28T04:48:08.527Z,3.11
2019-01-28T04:50:38.024Z,3.23
2019-01-28T04:53:07.324Z,3.20
2019-01-28T04:55:36.811Z,3.26
2019-01-28T04:58:06.244Z,3.22
2019-01-28T05:00:35.601Z,3.29
2019-01-28T05:03:05.095Z,3.27
2019-01-28T05:05:34.384Z,3.30
2019-01-28T05:08:03.658Z,3.36
2019-01-28T05:10:32.966Z,3.21
2019-01-28T05:13:02.252Z,3.34
2019-01-28T05:15:31.730Z,3.33
2019-01-28T05:18:00.980Z,3.34
2019-01-28T05:20:30.278Z,3.35
2019-01-28T05:22:59.579Z,3.36
2019-01-28T05:25:29.012Z,3.32
2019-01-28T05:27:58.282Z,3.36
2019-01-28T05:30:27.642Z,3.34
2019-01-28T05:32:56.938Z,3.32
2019-01-28T05:35:26.242Z,3.24
2019-01-28T05:37:55.591Z,3.27
2019-01-28T05:40:25.735Z,3.31
2019-01-28T05:42:55.082Z,3.33
2019-01-28T05:45:25.558Z,3.31
2019-01-28T05:47:55.283Z,3.28
2019-01-28T05:50:24.681Z,3.36
2019-01-28T05:52:54.286Z,3.26
2019-01-28T05:55:23.576Z,3.32
2019-01-28T05:57:52.957Z,3.20
2019-01-28T06:00:30.812Z,3.19
2019-01-28T06:03:00.106Z,3.07
2019-01-28T06:05:29.383Z,3.02
2019-01-28T06:07:58.721Z,3.07
2019-01-28T06:10:27.999Z,3.09
2019-01-28T06:12:57.396Z,2.98
2019-01-28T06:15:26.761Z,2.97
2019-01-28T06:17:56.065Z,2.99
2019-01-28T06:20:26.516Z,3.03
2019-01-28T06:22:55.914Z,3.03
2019-01-28T06:25:25.258Z,3.07
2019-01-28T06:27:54.560Z,2.99
2019-01-28T06:30:31.805Z,3.01
2019-01-28T06:33:01.178Z,3.03
2019-01-28T06:35:30.518Z,3.03
2019-01-28T06:37:59.811Z,3.10
2019-01-28T06:40:32.303Z,3.15
2019-01-28T06:43:01.585Z,3.09
2019-01-28T06:45:30.994Z,3.00
2019-01-28T06:48:00.445Z,3.05
2019-01-28T06:50:29.822Z,3.15
2019-01-28T06:52:59.143Z,3.08
2019-01-28T06:55:28.509Z,3.10
2019-01-28T06:57:57.912Z,3.15
2019-01-28T07:00:32.725Z,3.09
2019-01-28T07:03:02.461Z,3.07
2019-01-28T07:05:32.416Z,3.09
2019-01-28T07:08:01.740Z,3.10
2019-01-28T07:10:31.073Z,3.04
2019-01-28T07:13:00.368Z,2.92
2019-01-28T07:15:29.859Z,2.99
2019-01-28T07:17:59.370Z,3.03
2019-01-28T07:20:32.132Z,3.07
2019-01-28T07:23:01.875Z,3.01
2019-01-28T07:25:31.349Z,3.09
2019-01-28T07:28:00.804Z,3.02
2019-01-28T07:30:35.425Z,3.07
2019-01-28T07:33:05.336Z,3.08
2019-01-28T07:35:34.773Z,3.02
2019-01-28T07:38:05.864Z,3.05
2019-01-28T07:40:35.307Z,3.12
2019-01-28T07:43:04.743Z,3.19
2019-01-28T07:45:35.785Z,3.22
2019-01-28T07:48:05.398Z,3.20
2019-01-28T07:50:34.772Z,3.31
2019-01-28T07:53:04.690Z,3.39
2019-01-28T07:55:34.451Z,3.41
2019-01-28T07:58:05.273Z,3.40
2019-01-28T08:00:35.399Z,3.45
2019-01-28T08:03:05.690Z,3.44
2019-01-28T08:05:35.140Z,3.28
2019-01-28T08:08:05.303Z,3.35
2019-01-28T08:10:34.594Z,3.39
2019-01-28T08:13:04.879Z,3.38
2019-01-28T08:15:34.255Z,3.38
2019-01-28T08:18:10.480Z,3.42
2019-01-28T08:20:34.773Z,3.41
2019-01-28T08:23:04.806Z,3.39
2019-01-28T08:25:34.414Z,3.44
2019-01-28T08:28:04.758Z,3.49
2019-01-28T08:30:35.967Z,3.41
2019-01-28T08:33:05.401Z,3.45
2019-01-28T08:35:35.244Z,3.56
2019-01-28T08:38:04.675Z,3.53
2019-01-28T08:40:34.129Z,3.56
2019-01-28T08:43:03.499Z,3.65
2019-01-28T08:45:32.852Z,3.56
2019-01-28T08:48:02.299Z,3.66
2019-01-28T08:50:31.555Z,3.74
2019-01-28T08:53:00.855Z,3.92
2019-01-28T08:55:30.374Z,3.83
2019-01-28T08:57:59.938Z,3.90
2019-01-28T09:00:34.876Z,3.91
2019-01-28T09:03:04.319Z,3.92
2019-01-28T09:05:33.761Z,3.96
2019-01-28T09:08:03.206Z,3.88
2019-01-28T09:10:33.281Z,3.90
2019-01-28T09:13:02.550Z,3.85
2019-01-28T09:15:32.224Z,3.86
2019-01-28T09:18:01.858Z,3.75
2019-01-28T09:20:33.088Z,3.74
2019-01-28T09:23:02.881Z,3.74
2019-01-28T09:25:32.381Z,3.73
2019-01-28T09:28:02.491Z,3.76
2019-01-28T09:30:34.016Z,3.73
2019-01-28T09:33:04.687Z,3.66
2019-01-28T09:35:34.135Z,3.62
2019-01-28T09:38:03.844Z,3.62
2019-01-28T09:40:35.733Z,3.63
2019-01-28T09:43:06.045Z,3.70
2019-01-28T09:45:41.012Z,3.74
2019-01-28T09:48:12.729Z,3.69
2019-01-28T09:50:42.989Z,3.80
2019-01-28T09:53:13.318Z,3.81
2019-01-28T09:55:43.235Z,3.86
2019-01-28T09:58:12.612Z,3.87
2019-01-28T10:00:45.260Z,3.89
2019-01-28T10:03:14.601Z,3.79
2019-01-28T10:05:44.002Z,3.84
2019-01-28T10:08:13.948Z,3.81
2019-01-28T10:10:43.526Z,3.77
2019-01-28T10:13:12.818Z,3.81
2019-01-28T10:15:42.534Z,3.78
2019-01-28T10:18:11.901Z,3.75
2019-01-28T10:20:44.741Z,3.80
2019-01-28T10:23:14.665Z,3.80
2019-01-28T10:25:44.375Z,3.85
2019-01-28T10:28:13.758Z,3.80
2019-01-28T10:30:46.849Z,3.86
2019-01-28T10:33:16.875Z,3.74
2019-01-28T10:35:46.893Z,3.75
2019-01-28T10:38:16.633Z,3.79
2019-01-28T10:40:46.760Z,3.78
2019-01-28T10:43:17.051Z,3.75
2019-01-28T10:45:47.817Z,3.78
2019-01-28T10:48:18.095Z,3.73
2019-01-28T10:50:47.362Z,3.76
2019-01-28T10:53:16.743Z,3.66
2019-01-28T10:55:46.544Z,3.63
2019-01-28T10:58:15.851Z,3.59
2019-01-28T11:00:47.452Z,3.54
2019-01-28T11:03:18.396Z,3.21
2019-01-28T11:05:47.795Z,3.40
2019-01-28T11:08:17.271Z,3.47
2019-01-28T11:10:46.636Z,3.30
2019-01-28T11:13:15.957Z,3.32
2019-01-28T11:15:45.357Z,3.25
2019-01-28T11:18:21.208Z,3.17
2019-01-28T11:20:51.008Z,3.19
2019-01-28T11:23:20.633Z,3.10
2019-01-28T11:25:49.982Z,3.07
2019-01-28T11:28:19.321Z,3.23
2019-01-28T11:30:55.658Z,3.25
2019-01-28T11:33:25.146Z,3.28
2019-01-28T11:35:55.190Z,3.35
2019-01-28T11:38:25.471Z,3.41
2019-01-28T11:40:54.946Z,3.35
2019-01-28T11:43:24.377Z,3.52
2019-01-28T11:45:59.589Z,3.30
2019-01-28T11:48:29.124Z,3.56
2019-01-28T11:50:58.500Z,3.45
2019-01-28T11:53:27.934Z,3.58
2019-01-28T11:55:57.498Z,3.57
2019-01-28T11:58:26.841Z,3.57
2019-01-28T12:01:00.844Z,3.73
2019-01-28T12:03:31.001Z,3.72
2019-01-28T12:06:00.362Z,3.80
2019-01-28T12:08:29.678Z,3.81
2019-01-28T12:10:58.999Z,3.87
2019-01-28T12:13:28.710Z,3.86
2019-01-28T12:15:58.086Z,3.90
2019-01-28T12:18:27.503Z,3.89
2019-01-28T12:20:56.809Z,3.92
2019-01-28T12:23:26.196Z,3.89
2019-01-28T12:25:55.682Z,3.96
2019-01-28T12:28:24.960Z,4.10
2019-01-28T12:30:54.604Z,3.98
2019-01-28T12:33:23.897Z,4.13
2019-01-28T12:35:53.189Z,4.06
2019-01-28T12:38:22.523Z,4.05
2019-01-28T12:40:51.807Z,4.05
2019-01-28T12:43:21.258Z,4.02
2019-01-28T12:45:50.534Z,4.01
2019-01-28T12:48:19.953Z,4.02
2019-01-28T12:50:49.178Z,4.06
2019-01-28T12:53:18.469Z,4.02
2019-01-28T12:55:47.736Z,4.08
2019-01-28T12:58:17.145Z,4.07
2019-01-28T13:00:50.814Z,4.06
2019-01-28T13:03:20.639Z,4.07
2019-01-28T13:05:50.029Z,4.02
2019-01-28T13:08:19.414Z,4.00
2019-01-28T13:10:48.764Z,4.04
2019-01-28T13:13:18.062Z,4.02
2019-01-28T13:15:47.977Z,4.01
2019-01-28T13:18:18.060Z,3.91
2019-01-28T13:20:47.742Z,3.92
2019-01-28T13:23:17.047Z,3.79
2019-01-28T13:25:46.395Z,3.73
2019-01-28T13:28:15.768Z,3.72
2019-01-28T13:30:45.270Z,3.69
2019-01-28T13:33:16.119Z,3.76
2019-01-28T13:35:45.545Z,3.84
2019-01-28T13:38:14.933Z,3.86
2019-01-28T13:40:44.344Z,3.84
2019-01-28T13:43:13.694Z,3.83
2019-01-28T13:45:43.079Z,3.87
2019-01-28T13:48:13.503Z,3.89
2019-01-28T13:50:44.145Z,3.90
2019-01-28T13:53:13.693Z,3.94
2019-01-28T13:55:43.122Z,3.99
2019-01-28T13:58:12.603Z,3.98
2019-01-28T14:00:42.331Z,3.94
2019-01-28T14:03:11.691Z,3.99
2019-01-28T14:05:41.176Z,3.99
2019-01-28T14:08:10.619Z,3.97
2019-01-28T14:10:39.984Z,3.95
2019-01-28T14:13:09.379Z,3.97
2019-01-28T14:15:40.008Z,3.96
2019-01-28T14:18:10.522Z,3.89
2019-01-28T14:20:41.541Z,3.94
2019-01-28T14:23:10.987Z,3.91
2019-01-28T14:25:40.284Z,3.93
2019-01-28T14:28:09.820Z,4.05
2019-01-28T14:30:42.164Z,3.98
2019-01-28T14:33:11.595Z,4.11
2019-01-28T14:35:41.739Z,4.12
2019-01-28T14:38:12.090Z,4.03
2019-01-28T14:40:42.558Z,4.03
2019-01-28T14:43:11.903Z,4.01
2019-01-28T14:45:41.203Z,3.99
2019-01-28T14:48:11.057Z,4.04
2019-01-28T14:50:40.799Z,4.02
2019-01-28T14:53:10.725Z,4.03
2019-01-28T14:55:40.096Z,4.03
2019-01-28T14:58:10.152Z,4.03
2019-01-28T15:00:41.891Z,3.97
2019-01-28T15:03:11.865Z,3.97
2019-01-28T15:05:41.295Z,3.91
2019-01-28T15:08:10.961Z,3.94
2019-01-28T15:10:40.513Z,3.87
2019-01-28T15:13:09.813Z,3.90
2019-01-28T15:15:40.719Z,3.89
2019-01-28T15:18:12.322Z,3.91
2019-01-28T15:20:41.986Z,3.92
2019-01-28T15:23:11.360Z,3.88
2019-01-28T15:25:40.779Z,3.93
2019-01-28T15:28:10.094Z,3.88
2019-01-28T15:30:39.544Z,3.87
2019-01-28T15:33:08.971Z,3.90
2019-01-28T15:35:38.390Z,3.92
2019-01-28T15:38:07.751Z,3.93
2019-01-28T15:40:38.005Z,3.99
2019-01-28T15:43:07.470Z,4.04
2019-01-28T15:45:39.680Z,4.08
2019-01-28T15:48:09.635Z,4.12
2019-01-28T15:50:40.602Z,4.15
2019-01-28T15:53:10.279Z,4.17
2019-01-28T15:55:41.181Z,4.16
2019-01-28T15:58:10.847Z,4.16
2019-01-28T16:00:42.715Z,4.21
2019-01-28T16:03:12.257Z,4.25
2019-01-28T16:05:42.191Z,4.21
2019-01-28T16:08:11.571Z,4.20
2019-01-28T16:10:41.080Z,4.23
2019-01-28T16:13:10.474Z,4.19
2019-01-28T16:15:45.590Z,4.19
2019-01-28T16:18:14.907Z,4.18
2019-01-28T16:20:44.610Z,4.20
2019-01-28T16:23:13.940Z,4.18
2019-01-28T16:25:43.226Z,4.10
2019-01-28T16:28:12.536Z,4.18
2019-01-28T16:30:42.467Z,4.21
2019-01-28T16:33:11.771Z,4.11
2019-01-28T16:35:41.545Z,4.12
2019-01-28T16:38:10.817Z,4.12
2019-01-28T16:40:40.288Z,4.07
2019-01-28T16:43:09.897Z,4.07
2019-01-28T16:45:39.226Z,4.10
2019-01-28T16:48:08.875Z,4.13
2019-01-28T16:50:39.044Z,4.17
2019-01-28T16:53:08.684Z,4.19
2019-01-28T16:55:38.617Z,4.27
2019-01-28T16:58:08.252Z,4.29
2019-01-28T17:00:41.248Z,4.26
2019-01-28T17:03:11.278Z,4.32
2019-01-28T17:05:41.510Z,4.15
2019-01-28T17:08:11.181Z,4.08
2019-01-28T17:10:40.885Z,3.96
2019-01-28T17:13:10.400Z,3.93
2019-01-28T17:15:39.977Z,4.16
2019-01-28T17:18:09.352Z,4.14
2019-01-28T17:20:39.195Z,4.06
2019-01-28T17:23:09.357Z,4.06
2019-01-28T17:25:41.643Z,4.07
2019-01-28T17:28:11.106Z,4.03
2019-01-28T17:30:43.272Z,4.04
2019-01-28T17:33:12.656Z,3.95
2019-01-28T17:35:42.227Z,3.85
2019-01-28T17:38:11.812Z,3.86
2019-01-28T17:40:42.599Z,3.85
2019-01-28T17:43:12.717Z,3.85
2019-01-28T17:45:42.021Z,3.83
2019-01-28T17:48:11.771Z,3.84
2019-01-28T17:50:43.818Z,3.81
2019-01-28T17:53:12.441Z,3.89
2019-01-28T17:55:41.808Z,3.86
2019-01-28T17:58:11.523Z,3.98
2019-01-28T18:00:42.467Z,3.94
2019-01-28T18:03:11.896Z,4.02
2019-01-28T18:05:41.276Z,4.04
2019-01-28T18:08:10.680Z,3.98
2019-01-28T18:10:40.019Z,3.96
2019-01-28T18:13:09.365Z,3.92
2019-01-28T18:15:38.649Z,4.01
2019-01-28T18:18:08.040Z,3.91
2019-01-28T18:20:37.456Z,3.94
2019-01-28T18:23:07.615Z,3.95
2019-01-28T18:25:37.272Z,3.97
2019-01-28T18:28:07.127Z,3.97
2019-01-28T18:30:47.998Z,4.03
2019-01-28T18:33:17.362Z,3.84
2019-01-28T18:35:47.216Z,3.91
2019-01-28T18:38:16.503Z,3.81
2019-01-28T18:40:46.147Z,3.74
2019-01-28T18:43:15.488Z,3.64
2019-01-28T18:45:44.798Z,3.56
2019-01-28T18:48:14.151Z,3.44
2019-01-28T18:50:43.516Z,3.41
2019-01-28T18:53:13.057Z,3.33
2019-01-28T18:55:42.437Z,3.43
2019-01-28T18:58:11.774Z,3.43
2019-01-28T19:00:41.087Z,3.45
2019-01-28T19:03:10.428Z,3.44
2019-01-28T19:05:50.042Z,3.53
2019-01-28T19:08:21.035Z,3.34
2019-01-28T19:10:58.297Z,3.38
2019-01-28T19:13:32.305Z,3.39
2019-01-28T19:16:03.314Z,3.30
2019-01-28T19:18:34.400Z,3.31
2019-01-28T19:21:08.649Z,3.39
2019-01-28T19:23:37.940Z,3.34
2019-01-28T19:26:07.355Z,3.32
2019-01-28T19:28:36.678Z,3.28
2019-01-28T19:31:06.215Z,3.49
2019-01-28T19:33:35.520Z,3.20
2019-01-28T19:36:05.459Z,3.14
2019-01-28T19:38:34.962Z,3.24
2019-01-28T19:41:04.553Z,3.32
2019-01-28T19:43:33.975Z,3.30
2019-01-28T19:46:03.343Z,3.46
2019-01-28T19:48:32.752Z,3.50
2019-01-28T19:51:02.388Z,3.40
2019-01-28T19:53:31.654Z,3.38
2019-01-28T19:56:01.485Z,3.26
2019-01-28T19:58:30.810Z,3.31
2019-01-28T20:01:00.274Z,3.25
2019-01-28T20:03:29.591Z,3.36
2019-01-28T20:05:59.080Z,3.32
2019-01-28T20:08:28.438Z,3.26
2019-01-28T20:10:57.814Z,3.24
2019-01-28T20:13:27.285Z,3.32
2019-01-28T20:15:56.580Z,3.34
2019-01-28T20:18:25.891Z,3.49
2019-01-28T20:20:55.209Z,3.38
2019-01-28T20:23:24.588Z,3.28
2019-01-28T20:25:53.881Z,3.43
2019-01-28T20:28:23.181Z,3.41
2019-01-28T20:30:52.558Z,3.41
2019-01-28T20:33:21.844Z,3.54
2019-01-28T20:35:51.149Z,3.50
2019-01-28T20:38:20.456Z,3.44
2019-01-28T20:40:49.750Z,3.26
2019-01-28T20:43:23.878Z,3.38
2019-01-28T20:45:50.115Z,3.38
2019-01-28T20:48:19.501Z,3.20
2019-01-28T20:50:48.801Z,3.34
2019-01-28T20:53:18.193Z,3.28
2019-01-28T20:55:47.530Z,3.39
2019-01-28T20:58:16.790Z,3.36
2019-01-28T21:00:46.166Z,3.25
2019-01-28T21:03:15.864Z,3.30
2019-01-28T21:05:45.198Z,3.39
2019-01-28T21:08:14.494Z,3.29
2019-01-28T21:10:43.764Z,3.33
2019-01-28T21:13:13.246Z,3.12
2019-01-28T21:15:42.604Z,3.26
2019-01-28T21:18:12.665Z,3.22
2019-01-28T21:20:42.024Z,3.24
2019-01-28T21:23:11.424Z,3.28
2019-01-28T21:25:40.757Z,3.42
2019-01-28T21:28:10.142Z,3.34
2019-01-28T21:30:39.502Z,2.85
2019-01-28T21:33:08.893Z,3.19
2019-01-28T21:35:48.740Z,3.16
2019-01-28T21:38:34.934Z,3.11
2019-01-28T21:41:04.679Z,3.16
2019-01-28T21:43:34.023Z,3.15
2019-01-28T21:46:03.488Z,3.13
2019-01-28T21:48:33.024Z,3.11
2019-01-28T21:51:02.323Z,3.19
2019-01-28T21:53:31.693Z,3.14
2019-01-28T21:56:00.921Z,3.19
2019-01-28T21:58:30.573Z,3.08
2019-01-28T22:00:59.859Z,3.28
2019-01-28T22:03:29.298Z,3.22
2019-01-28T22:05:58.597Z,3.26
2019-01-28T22:08:27.915Z,3.29
2019-01-28T22:10:57.213Z,3.35
2019-01-28T22:13:26.563Z,3.42
2019-01-28T22:15:55.877Z,3.30
2019-01-28T22:18:27.032Z,3.33
2019-01-28T22:20:56.247Z,3.26
2019-01-28T22:23:25.517Z,3.28
2019-01-28T22:25:54.864Z,3.36
2019-01-28T22:28:24.159Z,3.28
2019-01-28T22:30:53.460Z,3.23
2019-01-28T22:33:22.731Z,3.05
2019-01-28T22:35:52.031Z,3.09
2019-01-28T22:38:22.661Z,3.27
2019-01-28T22:40:52.304Z,3.02
2019-01-28T22:43:21.958Z,3.16
2019-01-28T22:45:51.314Z,3.08
2019-01-28T22:48:20.665Z,2.94
2019-01-28T22:50:49.965Z,3.00
2019-01-28T22:53:19.238Z,3.02
2019-01-28T22:55:48.618Z,3.01
2019-01-28T22:58:18.073Z,3.05
2019-01-28T23:00:54.306Z,3.05
2019-01-28T23:03:25.848Z,3.08
2019-01-28T23:05:55.215Z,3.08
2019-01-28T23:08:24.522Z,3.05
2019-01-28T23:10:53.865Z,3.09
2019-01-28T23:13:23.170Z,3.15
2019-01-28T23:15:52.487Z,3.20
2019-01-28T23:18:21.795Z,3.19
2019-01-28T23:20:51.080Z,3.15
2019-01-28T23:23:20.386Z,3.07
2019-01-28T23:25:49.670Z,2.70
2019-01-28T23:28:19.177Z,2.96
2019-01-28T23:30:48.827Z,2.94
2019-01-28T23:33:18.273Z,2.90
2019-01-28T23:35:47.656Z,2.84
2019-01-28T23:38:16.958Z,2.90
2019-01-28T23:40:46.245Z,2.90
2019-01-28T23:43:16.212Z,2.96
2019-01-28T23:45:45.894Z,2.92
2019-01-28T23:48:15.861Z,2.97
2019-01-28T23:50:45.178Z,3.03
2019-01-28T23:53:14.678Z,2.97
2019-01-28T23:55:43.977Z,3.06
2019-01-28T23:58:13.289Z,2.89
